createdAt,value
2023-10-27T00:02:06.853Z,48.49
2023-10-27T00:04:35.626Z,48.39
2023-10-27T00:07:03.930Z,48.52
2023-10-27T00:09:37.258Z,48.49
2023-10-27T00:12:05.688Z,48.41
2023-10-27T00:14:34.643Z,48.52
2023-10-27T00:17:02.955Z,48.41
2023-10-27T00:19:31.300Z,48.35
2023-10-27T00:21:59.581Z,48.35
2023-10-27T00:24:28.500Z,48.43
2023-10-27T00:26:58.095Z,48.38
2023-10-27T00:29:26.820Z,48.39
2023-10-27T00:31:55.031Z,48.40
2023-10-27T00:34:23.261Z,48.21
2023-10-27T00:36:51.621Z,48.37
2023-10-27T00:39:19.806Z,48.44
2023-10-27T00:41:48.009Z,48.38
2023-10-27T00:44:17.663Z,48.44
2023-10-27T00:46:46.793Z,48.51
2023-10-27T00:49:15.694Z,48.34
2023-10-27T00:51:47.797Z,48.44
2023-10-27T00:54:17.083Z,48.25
2023-10-27T00:56:46.668Z,48.39
2023-10-27T00:59:15.386Z,48.31
2023-10-27T01:01:45.287Z,48.45
2023-10-27T01:04:13.642Z,48.42
2023-10-27T01:06:42.680Z,48.36
2023-10-27T01:09:11.373Z,48.29
2023-10-27T01:11:40.669Z,48.45
2023-10-27T01:14:08.866Z,48.18
2023-10-27T01:16:37.042Z,48.35
2023-10-27T01:19:06.826Z,48.27
2023-10-27T01:21:35.064Z,48.28
2023-10-27T01:24:05.878Z,48.31
2023-10-27T01:26:34.056Z,48.21
2023-10-27T01:29:02.265Z,48.29
2023-10-27T01:31:30.800Z,48.22
2023-10-27T01:33:59.023Z,48.30
2023-10-27T01:36:27.301Z,48.22
2023-10-27T01:38:56.702Z,48.13
2023-10-27T01:41:26.378Z,48.27
2023-10-27T01:43:54.548Z,48.16
2023-10-27T01:46:22.833Z,48.12
2023-10-27T01:48:51.113Z,48.11
2023-10-27T01:51:19.318Z,48.25
2023-10-27T01:53:47.690Z,48.29
2023-10-27T01:56:15.884Z,48.32
2023-10-27T01:58:46.497Z,48.19
2023-10-27T02:01:15.836Z,48.30
2023-10-27T02:03:44.353Z,48.25
2023-10-27T02:06:12.616Z,48.19
2023-10-27T02:08:41.117Z,48.22
2023-10-27T02:11:10.192Z,48.19
2023-10-27T02:13:38.505Z,48.21
2023-10-27T02:16:09.474Z,48.22
2023-10-27T02:18:37.773Z,48.19
2023-10-27T02:21:06.677Z,48.31
2023-10-27T02:23:35.368Z,48.12
2023-10-27T02:26:03.596Z,48.15
2023-10-27T02:28:31.867Z,48.13
2023-10-27T02:31:00.146Z,48.15
2023-10-27T02:33:30.217Z,48.13
2023-10-27T02:35:58.445Z,48.12
2023-10-27T02:38:26.657Z,48.21
2023-10-27T02:40:54.865Z,48.09
2023-10-27T02:43:23.111Z,48.08
2023-10-27T02:46:02.436Z,47.88
2023-10-27T02:48:32.269Z,48.05
2023-10-27T02:51:00.490Z,48.10
2023-10-27T02:53:28.759Z,48.08
2023-10-27T02:55:57.082Z,48.01
2023-10-27T02:58:25.395Z,48.19
2023-10-27T03:00:53.652Z,48.01
2023-10-27T03:03:21.903Z,48.07
2023-10-27T03:05:51.530Z,48.15
2023-10-27T03:08:20.122Z,48.04
2023-10-27T03:10:48.318Z,48.10
2023-10-27T03:13:16.537Z,48.08
2023-10-27T03:15:44.765Z,47.93
2023-10-27T03:18:13.780Z,48.08
2023-10-27T03:20:41.977Z,47.91
2023-10-27T03:23:11.588Z,48.05
2023-10-27T03:25:39.814Z,48.01
2023-10-27T03:28:08.520Z,47.91
2023-10-27T03:30:36.761Z,47.91
2023-10-27T03:33:05.114Z,47.99
2023-10-27T03:35:34.022Z,48.02
2023-10-27T03:38:02.304Z,48.00
2023-10-27T03:40:32.106Z,48.02
2023-10-27T03:43:00.368Z,47.99
2023-10-27T03:45:28.656Z,48.03
2023-10-27T03:47:56.905Z,47.93
2023-10-27T03:50:25.127Z,47.88
2023-10-27T03:52:53.339Z,47.91
2023-10-27T03:55:21.791Z,47.85
2023-10-27T03:57:52.061Z,47.92
2023-10-27T04:00:21.056Z,47.91
2023-10-27T04:02:49.513Z,47.90
2023-10-27T04:05:17.829Z,47.88
2023-10-27T04:07:46.036Z,47.89
2023-10-27T04:10:14.365Z,47.79
2023-10-27T04:12:42.651Z,47.98
2023-10-27T04:15:13.357Z,47.86
2023-10-27T04:17:41.589Z,47.90
2023-10-27T04:20:10.974Z,48.03
2023-10-27T04:22:39.415Z,48.04
2023-10-27T04:25:07.767Z,47.96
2023-10-27T04:27:36.705Z,48.03
2023-10-27T04:30:08.499Z,47.99
2023-10-27T04:32:39.100Z,47.89
2023-10-27T04:35:07.476Z,47.87
2023-10-27T04:37:36.024Z,48.03
2023-10-27T04:40:04.500Z,47.96
2023-10-27T04:42:32.802Z,47.92
2023-10-27T04:45:01.485Z,48.03
2023-10-27T04:47:29.734Z,47.98
2023-10-27T04:49:59.378Z,47.97
2023-10-27T04:52:27.574Z,47.96
2023-10-27T04:54:56.496Z,47.82
2023-10-27T04:57:24.894Z,47.93
2023-10-27T04:59:53.949Z,47.92
2023-10-27T05:02:22.139Z,47.94
2023-10-27T05:04:50.423Z,47.84
2023-10-27T05:07:20.137Z,47.91
2023-10-27T05:09:48.490Z,47.93
2023-10-27T05:12:16.959Z,47.85
2023-10-27T05:14:45.246Z,47.94
2023-10-27T05:17:14.420Z,47.95
2023-10-27T05:19:42.604Z,47.86
2023-10-27T05:22:10.854Z,47.82
2023-10-27T05:24:40.557Z,48.00
2023-10-27T05:27:08.736Z,47.86
2023-10-27T05:29:36.969Z,47.90
2023-10-27T05:32:05.642Z,47.86
2023-10-27T05:34:33.985Z,47.82
2023-10-27T05:37:02.261Z,47.99
2023-10-27T05:39:30.771Z,47.98
2023-10-27T05:42:00.380Z,47.91
2023-10-27T05:44:28.659Z,47.82
2023-10-27T05:46:56.912Z,47.84
2023-10-27T05:49:25.137Z,47.91
2023-10-27T05:51:53.341Z,47.91
2023-10-27T05:54:21.645Z,47.92
2023-10-27T05:56:50.350Z,47.91
2023-10-27T05:59:19.961Z,47.94
2023-10-27T06:01:57.367Z,47.92
2023-10-27T06:04:32.123Z,47.97
2023-10-27T06:07:01.094Z,47.88
2023-10-27T06:09:30.774Z,47.95
2023-10-27T06:11:58.996Z,48.35
2023-10-27T06:14:28.660Z,47.95
2023-10-27T06:16:56.905Z,47.91
2023-10-27T06:19:25.997Z,47.93
2023-10-27T06:21:54.839Z,47.93
2023-10-27T06:24:23.001Z,48.06
2023-10-27T06:26:51.190Z,47.92
2023-10-27T06:29:21.005Z,47.94
2023-10-27T06:31:50.624Z,47.96
2023-10-27T06:34:18.873Z,48.03
2023-10-27T06:36:49.070Z,48.00
2023-10-27T06:39:17.385Z,47.92
2023-10-27T06:41:47.536Z,47.87
2023-10-27T06:44:15.796Z,47.97
2023-10-27T06:46:45.556Z,47.89
2023-10-27T06:49:15.376Z,47.92
2023-10-27T06:51:43.872Z,48.00
2023-10-27T06:54:12.376Z,48.00
2023-10-27T06:56:40.620Z,47.96
2023-10-27T06:59:08.844Z,47.84
2023-10-27T07:01:37.165Z,47.83
2023-10-27T07:04:06.078Z,47.94
2023-10-27T07:06:35.730Z,47.91
2023-10-27T07:09:04.919Z,47.87
2023-10-27T07:11:33.177Z,47.80
2023-10-27T07:14:03.036Z,47.83
2023-10-27T07:16:31.705Z,47.84
2023-10-27T07:18:59.977Z,47.88
2023-10-27T07:21:28.236Z,47.91
2023-10-27T07:23:58.039Z,47.91
2023-10-27T07:26:26.245Z,47.84
2023-10-27T07:28:54.515Z,47.83
2023-10-27T07:31:23.325Z,47.78
2023-10-27T07:33:52.117Z,47.85
2023-10-27T07:36:20.483Z,48.00
2023-10-27T07:38:50.884Z,47.79
2023-10-27T07:41:20.603Z,47.85
2023-10-27T07:43:48.829Z,47.85
2023-10-27T07:46:17.221Z,47.81
2023-10-27T07:48:45.508Z,47.93
2023-10-27T07:51:13.771Z,47.78
2023-10-27T07:53:44.506Z,47.78
2023-10-27T07:56:13.007Z,47.83
2023-10-27T07:58:43.095Z,47.81
2023-10-27T08:01:11.523Z,47.86
2023-10-27T08:03:40.269Z,47.86
2023-10-27T08:06:09.799Z,47.95
2023-10-27T08:08:39.299Z,47.87
2023-10-27T08:11:07.787Z,47.85
2023-10-27T08:13:38.808Z,47.77
2023-10-27T08:16:09.249Z,47.90
2023-10-27T08:18:37.806Z,47.89
2023-10-27T08:21:06.805Z,47.85
2023-10-27T08:23:35.063Z,47.87
2023-10-27T08:26:03.278Z,47.93
2023-10-27T08:28:31.537Z,47.88
2023-10-27T08:31:00.430Z,47.88
2023-10-27T08:33:30.114Z,47.86
2023-10-27T08:36:04.682Z,47.83
2023-10-27T08:38:34.080Z,47.79
2023-10-27T08:41:02.502Z,47.92
2023-10-27T08:43:32.036Z,47.88
2023-10-27T08:46:01.197Z,47.85
2023-10-27T08:48:30.857Z,47.73
2023-10-27T08:51:05.358Z,47.94
2023-10-27T08:53:33.758Z,47.75
2023-10-27T08:56:02.259Z,47.77
2023-10-27T08:58:30.744Z,47.72
2023-10-27T09:00:59.421Z,47.75
2023-10-27T09:03:29.707Z,47.67
2023-10-27T09:05:59.619Z,47.63
2023-10-27T09:08:27.992Z,47.76
2023-10-27T09:10:57.032Z,47.73
2023-10-27T09:13:25.653Z,47.72
2023-10-27T09:15:53.955Z,47.79
2023-10-27T09:18:36.950Z,47.41
2023-10-27T09:21:07.854Z,47.67
2023-10-27T09:23:46.044Z,47.65
2023-10-27T09:26:14.576Z,47.71
2023-10-27T09:28:43.195Z,47.63
2023-10-27T09:31:12.535Z,47.78
2023-10-27T09:33:40.838Z,47.80
2023-10-27T09:36:12.060Z,47.73
2023-10-27T09:38:40.985Z,47.92
2023-10-27T09:41:10.939Z,47.78
2023-10-27T09:43:43.207Z,47.71
2023-10-27T09:46:13.773Z,47.59
2023-10-27T09:48:45.341Z,47.71
2023-10-27T09:51:17.790Z,47.75
2023-10-27T09:53:49.545Z,47.72
2023-10-27T09:56:19.152Z,47.64
2023-10-27T09:58:49.389Z,47.64
2023-10-27T10:01:18.472Z,47.74
2023-10-27T10:03:46.914Z,47.77
2023-10-27T10:06:19.379Z,47.77
2023-10-27T10:09:10.349Z,47.47
2023-10-27T10:11:55.738Z,47.72
2023-10-27T10:14:50.130Z,47.52
2023-10-27T10:17:41.312Z,47.54
2023-10-27T10:20:12.048Z,47.71
2023-10-27T10:22:59.795Z,47.38
2023-10-27T10:25:29.823Z,47.68
2023-10-27T10:28:25.420Z,47.40
2023-10-27T10:31:26.397Z,47.46
2023-10-27T10:34:12.544Z,47.47
2023-10-27T10:36:42.838Z,47.71
2023-10-27T10:39:15.422Z,47.63
2023-10-27T10:42:02.607Z,47.57
2023-10-27T10:44:32.245Z,47.61
2023-10-27T10:47:06.287Z,47.70
2023-10-27T10:49:37.643Z,47.83
2023-10-27T10:52:07.011Z,47.72
2023-10-27T10:54:37.009Z,47.64
2023-10-27T10:57:09.206Z,47.73
2023-10-27T10:59:38.395Z,47.72
2023-10-27T11:02:06.963Z,47.64
2023-10-27T11:07:07.676Z,47.67
2023-10-27T11:09:37.308Z,47.78
2023-10-27T11:12:06.295Z,47.67
2023-10-27T11:14:43.708Z,47.44
2023-10-27T11:17:13.650Z,47.72
2023-10-27T11:19:57.475Z,47.36
2023-10-27T11:22:26.496Z,47.66
2023-10-27T11:24:56.382Z,47.60
2023-10-27T11:27:25.960Z,47.68
2023-10-27T11:30:01.362Z,47.48
2023-10-27T11:32:29.727Z,47.64
2023-10-27T11:34:58.884Z,47.55
2023-10-27T11:37:28.227Z,47.59
2023-10-27T11:39:58.785Z,47.66
2023-10-27T11:42:27.090Z,47.60
2023-10-27T11:44:55.277Z,47.58
2023-10-27T11:47:26.472Z,47.57
2023-10-27T11:49:55.139Z,47.71
2023-10-27T11:52:23.723Z,47.67
2023-10-27T11:54:51.956Z,47.71
2023-10-27T11:57:21.651Z,47.67
2023-10-27T11:59:52.090Z,47.72
2023-10-27T12:02:20.863Z,47.46
2023-10-27T12:04:49.092Z,47.53
2023-10-27T12:07:18.639Z,47.41
2023-10-27T12:09:47.127Z,47.47
2023-10-27T12:12:15.330Z,47.51
2023-10-27T12:14:45.129Z,47.50
2023-10-27T12:17:13.472Z,47.41
2023-10-27T12:19:41.668Z,47.44
2023-10-27T12:22:10.716Z,47.43
2023-10-27T12:24:38.946Z,47.54
2023-10-27T12:27:10.546Z,47.65
2023-10-27T12:29:38.806Z,47.55
2023-10-27T12:32:11.178Z,47.55
2023-10-27T12:34:39.372Z,47.54
2023-10-27T12:37:09.032Z,47.51
2023-10-27T12:39:37.335Z,47.63
2023-10-27T12:42:08.901Z,47.50
2023-10-27T12:44:37.090Z,47.56
2023-10-27T12:47:05.486Z,47.51
2023-10-27T12:49:35.427Z,47.67
2023-10-27T12:52:03.625Z,47.51
2023-10-27T12:54:32.424Z,47.55
2023-10-27T12:57:00.800Z,47.57
2023-10-27T12:59:29.025Z,47.63
2023-10-27T13:01:57.373Z,47.65
2023-10-27T13:04:26.111Z,47.67
2023-10-27T13:06:56.221Z,47.65
2023-10-27T13:09:24.500Z,47.49
2023-10-27T13:11:55.415Z,47.58
2023-10-27T13:14:24.302Z,47.53
2023-10-27T13:16:53.076Z,47.57
2023-10-27T13:19:22.304Z,47.54
2023-10-27T13:21:50.454Z,47.57
2023-10-27T13:24:20.112Z,47.53
2023-10-27T13:26:48.298Z,47.42
2023-10-27T13:29:16.489Z,47.32
2023-10-27T13:31:45.830Z,47.40
2023-10-27T13:34:14.865Z,47.33
2023-10-27T13:36:44.520Z,47.33
2023-10-27T13:39:12.845Z,47.33
2023-10-27T13:41:42.435Z,47.45
2023-10-27T13:44:10.754Z,47.36
2023-10-27T13:46:39.470Z,47.43
2023-10-27T13:49:12.324Z,47.45
2023-10-27T13:51:41.018Z,47.33
2023-10-27T13:54:11.740Z,47.53
2023-10-27T13:56:40.662Z,47.45
2023-10-27T13:59:10.753Z,47.48
2023-10-27T14:01:40.560Z,47.48
2023-10-27T14:04:09.053Z,47.37
2023-10-27T14:06:40.013Z,47.43
2023-10-27T14:09:09.830Z,47.44
2023-10-27T14:11:39.596Z,47.50
2023-10-27T14:14:10.382Z,47.29
2023-10-27T14:16:38.833Z,47.35
2023-10-27T14:19:07.356Z,47.33
2023-10-27T14:21:39.883Z,47.44
2023-10-27T14:24:09.340Z,47.33
2023-10-27T14:26:37.686Z,47.29
2023-10-27T14:29:07.795Z,47.36
2023-10-27T14:31:37.760Z,47.36
2023-10-27T14:34:08.105Z,47.37
2023-10-27T14:36:36.329Z,47.40
2023-10-27T14:39:07.198Z,47.32
2023-10-27T14:41:36.483Z,47.44
2023-10-27T14:44:04.965Z,47.39
2023-10-27T14:46:34.010Z,47.25
2023-10-27T14:49:04.077Z,47.36
2023-10-27T14:51:32.632Z,47.30
2023-10-27T14:54:01.707Z,47.24
2023-10-27T14:56:30.995Z,47.43
2023-10-27T14:58:59.215Z,47.30
2023-10-27T15:01:27.370Z,47.11
2023-10-27T15:03:55.613Z,47.26
2023-10-27T15:06:26.338Z,47.26
2023-10-27T15:08:54.985Z,47.31
2023-10-27T15:11:23.271Z,47.31
2023-10-27T15:13:52.973Z,47.40
2023-10-27T15:16:21.769Z,47.37
2023-10-27T15:18:50.512Z,47.18
2023-10-27T15:21:18.979Z,47.22
2023-10-27T15:23:49.940Z,47.23
2023-10-27T15:26:19.063Z,47.25
2023-10-27T15:28:48.559Z,47.33
2023-10-27T15:31:17.065Z,47.29
2023-10-27T15:33:47.307Z,47.34
2023-10-27T15:36:16.262Z,47.16
2023-10-27T15:38:44.978Z,47.23
2023-10-27T15:41:28.398Z,46.83
2023-10-27T15:43:58.099Z,47.18
2023-10-27T15:46:27.171Z,47.01
2023-10-27T15:48:55.440Z,46.93
2023-10-27T15:51:24.152Z,47.08
2023-10-27T15:53:57.477Z,46.96
2023-10-27T15:56:29.128Z,46.83
2023-10-27T15:58:59.655Z,46.92
2023-10-27T16:01:27.930Z,46.94
2023-10-27T16:03:56.380Z,46.93
2023-10-27T16:06:24.696Z,46.93
2023-10-27T16:08:54.847Z,46.89
2023-10-27T16:11:24.298Z,46.90
2023-10-27T16:13:54.063Z,46.95
2023-10-27T16:16:22.477Z,47.09
2023-10-27T16:18:52.066Z,47.05
2023-10-27T16:21:20.677Z,47.06
2023-10-27T16:23:48.855Z,47.08
2023-10-27T16:26:17.833Z,47.02
2023-10-27T16:28:47.073Z,47.14
2023-10-27T16:31:16.711Z,47.14
2023-10-27T16:33:45.109Z,47.09
2023-10-27T16:36:13.390Z,47.10
2023-10-27T16:38:41.930Z,47.14
2023-10-27T16:41:11.209Z,47.09
2023-10-27T16:43:41.591Z,47.07
2023-10-27T16:46:09.978Z,47.16
2023-10-27T16:48:39.726Z,47.12
2023-10-27T16:51:12.162Z,46.82
2023-10-27T16:53:40.801Z,46.92
2023-10-27T16:56:10.167Z,46.95
2023-10-27T16:58:39.709Z,47.05
2023-10-27T17:01:08.650Z,47.13
2023-10-27T17:03:38.082Z,47.15
2023-10-27T17:06:08.545Z,47.00
2023-10-27T17:08:36.952Z,47.04
2023-10-27T17:11:06.888Z,47.08
2023-10-27T17:13:37.096Z,47.06
2023-10-27T17:16:08.726Z,47.07
2023-10-27T17:18:38.459Z,46.92
2023-10-27T17:21:15.515Z,46.85
2023-10-27T17:23:44.864Z,47.00
2023-10-27T17:26:13.215Z,47.08
2023-10-27T17:28:42.569Z,47.01
2023-10-27T17:31:11.689Z,47.12
2023-10-27T17:33:40.733Z,46.95
2023-10-27T17:36:11.695Z,47.03
2023-10-27T17:38:41.332Z,47.03
2023-10-27T17:41:12.032Z,47.10
2023-10-27T17:43:40.395Z,47.07
2023-10-27T17:46:10.977Z,46.98
2023-10-27T17:48:41.875Z,47.07
2023-10-27T17:51:11.613Z,47.00
2023-10-27T17:53:41.506Z,47.07
2023-10-27T17:56:10.951Z,47.09
2023-10-27T17:58:39.931Z,46.98
2023-10-27T18:01:09.709Z,47.04
2023-10-27T18:03:38.833Z,47.07
2023-10-27T18:06:09.042Z,46.95
2023-10-27T18:08:39.595Z,47.00
2023-10-27T18:11:09.739Z,46.99
2023-10-27T18:13:38.216Z,46.99
2023-10-27T18:16:08.623Z,46.92
2023-10-27T18:18:37.792Z,46.93
2023-10-27T18:21:07.786Z,46.94
2023-10-27T18:23:36.221Z,46.92
2023-10-27T18:26:14.298Z,46.70
2023-10-27T18:28:42.758Z,46.96
2023-10-27T18:31:11.083Z,46.98
2023-10-27T18:33:40.093Z,46.97
2023-10-27T18:36:13.363Z,46.86
2023-10-27T18:38:41.776Z,46.92
2023-10-27T18:41:13.178Z,46.77
2023-10-27T18:43:45.181Z,46.91
2023-10-27T18:46:15.513Z,46.83
2023-10-27T18:48:44.374Z,46.99
2023-10-27T18:51:13.946Z,46.93
2023-10-27T18:53:42.580Z,46.89
2023-10-27T18:56:11.324Z,46.92
2023-10-27T18:58:42.758Z,46.81
2023-10-27T19:01:12.374Z,46.89
2023-10-27T19:03:42.084Z,46.95
2023-10-27T19:06:10.880Z,46.81
2023-10-27T19:08:39.422Z,46.92
2023-10-27T19:11:11.342Z,46.96
2023-10-27T19:13:41.390Z,46.80
2023-10-27T19:16:12.169Z,46.91
2023-10-27T19:18:40.948Z,46.93
2023-10-27T19:21:11.360Z,46.75
2023-10-27T19:23:40.695Z,46.83
2023-10-27T19:26:16.389Z,46.61
2023-10-27T19:28:45.708Z,46.80
2023-10-27T19:31:16.747Z,46.79
2023-10-27T19:33:45.919Z,46.81
2023-10-27T19:36:14.994Z,46.67
2023-10-27T19:38:43.564Z,46.90
2023-10-27T19:41:13.535Z,46.79
2023-10-27T19:43:42.188Z,46.72
2023-10-27T19:46:13.378Z,46.72
2023-10-27T19:48:44.000Z,46.60
2023-10-27T19:51:13.625Z,46.69
2023-10-27T19:53:42.783Z,46.78
2023-10-27T19:56:13.193Z,46.74
2023-10-27T19:58:42.707Z,46.83
2023-10-27T20:01:15.317Z,46.74
2023-10-27T20:03:45.695Z,46.67
2023-10-27T20:06:15.516Z,46.76
2023-10-27T20:08:44.535Z,46.82
2023-10-27T20:11:14.574Z,46.68
2023-10-27T20:13:45.094Z,46.70
2023-10-27T20:16:14.837Z,46.71
2023-10-27T20:18:46.692Z,46.69
2023-10-27T20:21:15.281Z,46.71
2023-10-27T20:23:44.223Z,46.60
2023-10-27T20:26:14.586Z,46.61
2023-10-27T20:28:42.835Z,46.60
2023-10-27T20:31:11.100Z,46.65
2023-10-27T20:33:39.335Z,46.62
2023-10-27T20:36:10.527Z,46.68
2023-10-27T20:38:39.853Z,46.55
2023-10-27T20:41:08.510Z,46.65
2023-10-27T20:43:38.411Z,46.67
2023-10-27T20:46:07.873Z,46.54
2023-10-27T20:48:36.313Z,46.56
2023-10-27T20:51:05.224Z,46.48
2023-10-27T20:53:34.772Z,46.66
2023-10-27T20:56:03.329Z,46.40
2023-10-27T20:58:31.592Z,46.59
2023-10-27T21:01:05.320Z,46.49
2023-10-27T21:03:33.644Z,46.54
2023-10-27T21:06:06.464Z,46.60
2023-10-27T21:08:36.218Z,46.51
2023-10-27T21:11:05.874Z,46.49
2023-10-27T21:13:34.182Z,46.41
2023-10-27T21:16:06.233Z,46.52
2023-10-27T21:18:34.445Z,46.58
2023-10-27T21:21:03.627Z,46.56
2023-10-27T21:23:31.927Z,46.70
2023-10-27T21:26:01.676Z,46.47
2023-10-27T21:28:30.538Z,46.57
2023-10-27T21:30:59.162Z,46.50
2023-10-27T21:33:28.337Z,46.50
2023-10-27T21:35:57.442Z,46.47
2023-10-27T21:38:25.694Z,46.44
2023-10-27T21:40:53.888Z,46.55
2023-10-27T21:43:23.593Z,46.54
2023-10-27T21:45:51.776Z,46.44
2023-10-27T21:48:21.590Z,46.43
2023-10-27T21:50:49.862Z,46.51
2023-10-27T21:53:18.832Z,46.44
2023-10-27T21:55:47.043Z,46.50
2023-10-27T21:58:15.227Z,46.38
2023-10-27T22:00:45.074Z,46.42
2023-10-27T22:03:18.592Z,46.40
2023-10-27T22:05:48.263Z,46.43
2023-10-27T22:08:16.525Z,46.47
2023-10-27T22:10:44.838Z,46.49
2023-10-27T22:13:12.988Z,46.41
2023-10-27T22:15:41.770Z,46.46
2023-10-27T22:18:11.780Z,46.53
2023-10-27T22:20:41.853Z,46.44
2023-10-27T22:23:10.411Z,46.48
2023-10-27T22:25:39.330Z,46.33
2023-10-27T22:28:16.449Z,46.34
2023-10-27T22:30:45.751Z,46.40
2023-10-27T22:33:15.580Z,46.30
2023-10-27T22:35:43.974Z,46.34
2023-10-27T22:38:12.363Z,46.40
2023-10-27T22:40:40.762Z,46.28
2023-10-27T22:43:09.111Z,46.29
2023-10-27T22:45:40.593Z,46.33
2023-10-27T22:48:10.124Z,46.22
2023-10-27T22:50:39.783Z,46.43
2023-10-27T22:53:09.067Z,46.45
2023-10-27T22:55:37.308Z,46.27
2023-10-27T22:58:05.946Z,46.16
2023-10-27T23:00:34.145Z,46.27
2023-10-27T23:03:02.405Z,46.32
2023-10-27T23:05:33.718Z,46.26
2023-10-27T23:08:05.805Z,46.33
2023-10-27T23:10:34.554Z,46.33
2023-10-27T23:13:06.358Z,46.29
2023-10-27T23:15:36.657Z,46.26
2023-10-27T23:18:05.524Z,46.30
2023-10-27T23:20:34.159Z,46.29
2023-10-27T23:23:03.801Z,46.36
2023-10-27T23:25:34.332Z,46.18
2023-10-27T23:28:02.707Z,46.03
2023-10-27T23:30:31.765Z,46.25
2023-10-27T23:33:00.120Z,46.28
2023-10-27T23:35:28.985Z,46.31
2023-10-27T23:37:58.608Z,46.23
2023-10-27T23:40:28.296Z,46.26
2023-10-27T23:42:56.525Z,46.32
2023-10-27T23:45:26.474Z,46.42
2023-10-27T23:47:55.525Z,46.37
2023-10-27T23:50:23.725Z,46.31
2023-10-27T23:52:51.931Z,46.31
2023-10-27T23:55:20.143Z,46.33
2023-10-27T23:57:49.723Z,46.28
